Time;durP1;ratioP1;P1;durP2;ratioP2;P2;SDS_P1;SDS_P2;PMS_P1;PMS_P2;Temp;Humidity;BMP_temperature;BMP_pressure;BME280_temperature;BME280_humidity;BME280_pressure;Samples;Min_cycle;Max_cycle;Signal;HPM_P1;HPM_P2
2021/03/26 00:01:35;;;;;;;8.70;6.25;;;3.20;83.40;;;;;;5112856;28;20491;-78
2021/03/26 00:04:05;;;;;;;6.25;5.03;;;3.00;84.10;;;;;;5093322;28;20044;-78
2021/03/26 00:06:38;;;;;;;6.15;5.28;;;2.90;84.50;;;;;;5076957;28;20040;-79
2021/03/26 00:09:07;;;;;;;6.45;5.07;;;3.00;84.20;;;;;;5058509;28;20043;-79
2021/03/26 00:11:35;;;;;;;7.25;5.70;;;3.00;84.30;;;;;;5058900;28;20400;-78
2021/03/26 00:14:03;;;;;;;6.55;5.18;;;3.10;84.30;;;;;;5092168;28;20082;-78
2021/03/26 00:16:30;;;;;;;8.90;5.30;;;3.20;84.70;;;;;;5095202;28;20036;-78
2021/03/26 00:18:58;;;;;;;10.50;4.55;;;3.30;83.70;;;;;;5069821;28;20047;-79
2021/03/26 00:21:26;;;;;;;8.02;4.90;;;3.30;82.80;;;;;;5093864;28;20052;-78
2021/03/26 00:23:53;;;;;;;13.02;4.75;;;3.30;83.70;;;;;;5093394;28;20039;-78
2021/03/26 00:26:39;;;;;;;8.52;5.07;;;3.40;83.30;;;;;;5097658;28;20048;-78
2021/03/26 00:29:20;;;;;;;7.10;4.97;;;3.70;82.40;;;;;;5095034;28;20044;-78
2021/03/26 00:31:49;;;;;;;12.52;5.78;;;4.00;80.40;;;;;;5113441;28;20056;-79
2021/03/26 00:34:27;;;;;;;7.95;5.30;;;4.30;79.60;;;;;;5051959;28;20726;-78
2021/03/26 00:36:55;;;;;;;9.05;4.85;;;4.10;79.90;;;;;;5094137;28;20046;-78
2021/03/26 00:39:23;;;;;;;8.50;4.80;;;4.10;80.30;;;;;;5111327;28;20039;-78
2021/03/26 00:41:50;;;;;;;9.95;4.63;;;4.10;81.20;;;;;;5091224;28;20054;-78
2021/03/26 00:44:18;;;;;;;5.00;4.32;;;4.20;80.20;;;;;;5092586;28;20038;-78
2021/03/26 00:46:46;;;;;;;8.85;5.20;;;4.30;79.60;;;;;;5087762;28;20043;-78
2021/03/26 00:49:45;;;;;;;18.35;9.23;;;4.40;79.70;;;;;;5061891;28;20048;-78
2021/03/26 00:52:15;;;;;;;7.57;4.82;;;4.30;79.50;;;;;;5112523;28;20357;-78
2021/03/26 00:54:50;;;;;;;9.73;4.82;;;4.10;78.10;;;;;;5089128;28;20075;-78
2021/03/26 00:57:18;;;;;;;7.57;5.63;;;3.50;80.80;;;;;;5109500;28;20062;-78
2021/03/26 00:59:47;;;;;;;8.27;5.38;;;3.40;84.10;;;;;;5094633;28;20062;-78
2021/03/26 01:02:14;;;;;;;12.43;7.03;;;3.60;83.70;;;;;;5073027;28;20832;-79
2021/03/26 01:04:43;;;;;;;14.95;6.65;;;3.70;82.70;;;;;;5081261;28;20058;-78
2021/03/26 01:07:11;;;;;;;17.88;7.60;;;3.90;82.30;;;;;;5078489;28;20040;-79
2021/03/26 01:09:38;;;;;;;5.38;4.22;;;3.90;82.10;;;;;;5084995;28;20036;-79
2021/03/26 01:12:08;;;;;;;8.38;5.13;;;3.90;82.00;;;;;;5093222;28;20047;-78
2021/03/26 01:14:43;;;;;;;6.18;5.55;;;4.00;81.80;;;;;;5096273;28;20051;-79
2021/03/26 01:17:11;;;;;;;8.68;5.15;;;3.70;80.20;;;;;;5103165;28;20040;-79
2021/03/26 01:19:42;;;;;;;8.38;7.43;;;3.20;82.70;;;;;;5099532;28;20044;-79
2021/03/26 01:22:12;;;;;;;6.60;5.05;;;2.80;86.50;;;;;;5093886;28;20043;-79
2021/03/26 01:24:40;;;;;;;6.82;5.68;;;2.70;88.10;;;;;;5124954;28;20048;-78
2021/03/26 01:27:08;;;;;;;8.50;5.47;;;2.80;87.80;;;;;;5074430;28;20048;-79
2021/03/26 01:29:45;;;;;;;7.45;6.35;;;2.90;87.50;;;;;;5089742;28;20403;-78
2021/03/26 01:32:12;;;;;;;8.27;5.50;;;3.00;86.90;;;;;;5094368;28;20036;-78
2021/03/26 01:34:43;;;;;;;9.95;5.70;;;3.00;86.90;;;;;;5075846;28;20059;-78
2021/03/26 01:37:10;;;;;;;7.53;6.47;;;3.10;86.50;;;;;;5076540;28;20044;-79
2021/03/26 01:39:48;;;;;;;10.18;6.07;;;3.20;86.30;;;;;;5100523;28;20403;-83
2021/03/26 01:42:24;;;;;;;9.57;6.68;;;3.20;86.20;;;;;;5098622;28;20063;-83
2021/03/26 01:44:52;;;;;;;11.07;6.57;;;3.00;84.50;;;;;;5077110;28;20396;-83
2021/03/26 01:47:26;;;;;;;12.25;5.25;;;2.90;87.30;;;;;;5087040;28;20059;-76
2021/03/26 01:49:54;;;;;;;9.32;5.22;;;3.00;87.70;;;;;;5094927;28;20462;-75
2021/03/26 01:52:23;;;;;;;11.45;7.50;;;3.30;87.00;;;;;;5108718;28;20043;-75
2021/03/26 01:54:51;;;;;;;5.95;4.75;;;3.40;86.20;;;;;;5104080;28;20503;-75
2021/03/26 01:57:19;;;;;;;8.13;6.25;;;3.30;86.40;;;;;;5104660;28;20728;-75
2021/03/26 01:59:56;;;;;;;7.25;4.60;;;2.90;88.10;;;;;;5100209;28;20044;-75
2021/03/26 02:02:26;;;;;;;11.93;6.45;;;2.90;88.70;;;;;;5084943;28;20039;-76
2021/03/26 02:05:24;;;;;;;8.75;6.05;;;2.80;87.80;;;;;;5091515;28;20044;-76
2021/03/26 02:08:05;;;;;;;12.15;7.03;;;2.50;88.10;;;;;;5106796;28;20051;-76
2021/03/26 02:10:43;;;;;;;6.00;5.40;;;2.20;90.30;;;;;;5087418;28;20051;-75
2021/03/26 02:13:24;;;;;;;7.13;4.82;;;2.10;91.50;;;;;;5120016;27;20039;-76
2021/03/26 02:15:54;;;;;;;7.75;5.13;;;2.00;91.50;;;;;;5104108;28;20063;-75
2021/03/26 02:18:31;;;;;;;10.13;5.80;;;2.10;91.80;;;;;;5118576;27;20059;-76
2021/03/26 02:21:16;;;;;;;13.35;7.32;;;2.40;91.30;;;;;;5083076;28;20063;-75
2021/03/26 02:23:51;;;;;;;12.55;5.28;;;2.80;90.60;;;;;;5075650;28;20052;-75
2021/03/26 02:26:32;;;;;;;13.52;9.98;;;3.20;90.30;;;;;;5102907;28;20059;-75
2021/03/26 02:29:22;;;;;;;10.90;6.40;;;3.40;88.70;;;;;;5102813;28;20538;-76
2021/03/26 02:32:06;;;;;;;8.98;6.47;;;3.60;87.50;;;;;;5103493;28;20050;-76
2021/03/26 02:34:37;;;;;;;14.23;5.55;;;3.70;86.60;;;;;;5085945;28;20040;-75
2021/03/26 02:37:11;;;;;;;12.50;8.02;;;3.80;86.00;;;;;;5084975;28;20050;-75
2021/03/26 02:39:58;;;;;;;14.95;7.82;;;3.90;85.90;;;;;;5102640;28;20051;-76
2021/03/26 02:42:31;;;;;;;10.63;8.23;;;4.00;85.50;;;;;;5099092;28;20062;-75
2021/03/26 02:45:21;;;;;;;12.18;8.35;;;4.10;85.00;;;;;;5103358;28;20039;-76
2021/03/26 02:48:07;;;;;;;12.20;6.85;;;4.30;84.70;;;;;;5092230;28;20070;-75
2021/03/26 02:50:53;;;;;;;13.20;9.70;;;4.40;84.30;;;;;;5089047;28;20457;-75
2021/03/26 02:53:54;;;;;;;11.13;6.60;;;4.50;83.70;;;;;;5094481;28;20465;-76
2021/03/26 02:56:25;;;;;;;15.48;7.38;;;4.60;83.40;;;;;;5117366;27;20040;-75
2021/03/26 02:59:05;;;;;;;18.75;8.68;;;4.60;83.00;;;;;;5056042;28;20060;-76
2021/03/26 03:01:38;;;;;;;12.43;5.43;;;4.50;83.30;;;;;;5039195;28;20040;-75
2021/03/26 03:04:10;;;;;;;12.43;6.93;;;4.40;83.50;;;;;;5055174;28;20048;-76
2021/03/26 03:06:52;;;;;;;11.43;7.90;;;4.20;84.40;;;;;;5071430;28;20036;-76
2021/03/26 03:09:40;;;;;;;10.15;6.03;;;4.10;85.40;;;;;;5051861;28;20524;-76
2021/03/26 03:12:20;;;;;;;9.82;6.28;;;4.30;83.20;;;;;;5071005;28;20052;-75
2021/03/26 03:15:05;;;;;;;8.40;5.15;;;4.10;82.00;;;;;;5073662;28;20040;-75
2021/03/26 03:18:00;;;;;;;8.15;5.25;;;3.60;82.90;;;;;;5047769;28;20397;-75
2021/03/26 03:20:31;;;;;;;6.07;5.43;;;2.60;84.00;;;;;;5052734;28;20063;-75
2021/03/26 03:23:25;;;;;;;8.15;5.97;;;2.20;86.70;;;;;;5088861;28;20052;-75
2021/03/26 03:26:20;;;;;;;7.70;5.68;;;1.90;87.80;;;;;;5070725;28;20787;-75
2021/03/26 03:28:58;;;;;;;7.68;6.00;;;1.50;90.70;;;;;;5066653;28;20048;-75
2021/03/26 03:32:11;;;;;;;9.70;5.40;;;1.40;92.00;;;;;;5069744;28;20426;-76
2021/03/26 03:34:51;;;;;;;13.57;6.57;;;1.30;93.20;;;;;;5051153;28;20053;-75
2021/03/26 03:37:35;;;;;;;8.75;5.90;;;1.40;93.10;;;;;;5067764;28;20041;-75
2021/03/26 03:40:07;;;;;;;14.27;5.95;;;1.60;93.10;;;;;;5067549;28;20047;-75
2021/03/26 03:43:00;;;;;;;11.00;6.57;;;1.80;93.80;;;;;;5052955;28;20059;-75
2021/03/26 03:45:44;;;;;;;12.30;6.93;;;1.90;93.00;;;;;;5048528;28;20056;-75
2021/03/26 03:48:35;;;;;;;13.75;5.85;;;1.90;92.50;;;;;;5068631;28;20044;-75
2021/03/26 03:51:17;;;;;;;8.88;6.13;;;1.70;91.10;;;;;;5050474;28;20041;-75
2021/03/26 03:53:52;;;;;;;9.73;7.40;;;1.40;90.90;;;;;;5070060;28;20389;-76
2021/03/26 03:56:31;;;;;;;13.05;6.53;;;1.20;92.30;;;;;;5055974;28;20033;-75
2021/03/26 03:59:05;;;;;;;11.35;6.22;;;1.10;93.50;;;;;;5083466;28;20055;-75
2021/03/26 04:01:56;;;;;;;9.15;5.95;;;1.10;93.50;;;;;;5088360;28;20396;-75
2021/03/26 04:04:42;;;;;;;11.20;6.15;;;1.20;94.20;;;;;;5095253;28;20047;-74
2021/03/26 04:07:18;;;;;;;10.23;6.95;;;1.40;94.10;;;;;;5098408;28;20048;-75
2021/03/26 04:09:52;;;;;;;9.27;7.22;;;1.70;93.90;;;;;;5077281;28;20512;-75
2021/03/26 04:12:24;;;;;;;10.52;7.75;;;1.70;92.80;;;;;;5084730;28;20043;-75
2021/03/26 04:15:04;;;;;;;9.80;7.68;;;1.70;92.80;;;;;;5090953;28;20047;-75
2021/03/26 04:18:30;;;;;;;11.25;6.57;;;1.70;93.10;;;;;;5068883;28;20052;-75
2021/03/26 04:21:24;;;;;;;8.88;6.57;;;1.70;92.40;;;;;;5047138;28;20037;-75
2021/03/26 04:24:15;;;;;;;14.10;5.93;;;1.60;92.30;;;;;;5045709;28;20045;-75
2021/03/26 04:27:12;;;;;;;11.13;5.55;;;1.30;92.20;;;;;;5058171;28;20509;-75
2021/03/26 04:30:10;;;;;;;10.57;7.82;;;1.10;92.40;;;;;;5068150;28;20649;-75
2021/03/26 04:32:53;;;;;;;9.73;8.20;;;0.90;92.30;;;;;;5070905;28;20044;-75
2021/03/26 04:35:23;;;;;;;8.13;6.20;;;0.80;94.00;;;;;;5070132;28;20571;-75
2021/03/26 04:38:43;;;;;;;8.93;7.18;;;0.80;94.40;;;;;;5080377;28;20051;-75
2021/03/26 04:41:16;;;;;;;11.95;7.25;;;1.00;94.50;;;;;;5006686;28;20490;-75
2021/03/26 04:43:54;;;;;;;10.90;6.68;;;1.00;94.40;;;;;;5068602;28;20563;-75
2021/03/26 04:46:29;;;;;;;10.75;6.75;;;1.00;94.20;;;;;;5054458;28;20059;-75
2021/03/26 04:49:11;;;;;;;16.42;9.68;;;1.00;93.70;;;;;;5070420;28;20040;-75
2021/03/26 04:51:54;;;;;;;14.18;7.50;;;0.90;93.50;;;;;;5072120;28;20052;-75
2021/03/26 04:54:46;;;;;;;16.60;9.88;;;0.70;94.20;;;;;;5038573;28;20059;-75
2021/03/26 04:57:48;;;;;;;6.05;5.43;;;0.70;94.90;;;;;;5094765;28;20052;-75
2021/03/26 05:00:49;;;;;;;11.20;6.95;;;0.80;95.30;;;;;;5071157;28;20040;-75
2021/03/26 05:03:35;;;;;;;13.02;8.05;;;0.90;95.30;;;;;;5062825;28;20044;-75
2021/03/26 05:06:13;;;;;;;10.00;7.05;;;1.00;95.40;;;;;;5070981;28;20052;-75
2021/03/26 05:08:46;;;;;;;10.20;6.78;;;0.90;94.00;;;;;;5073790;28;20552;-75
2021/03/26 05:11:32;;;;;;;9.90;8.70;;;0.70;92.60;;;;;;5082193;28;20433;-75
2021/03/26 05:14:10;;;;;;;11.98;8.82;;;0.50;93.20;;;;;;5080292;28;20036;-75
2021/03/26 05:16:48;;;;;;;12.65;7.53;;;0.60;94.10;;;;;;5085431;28;20043;-75
2021/03/26 05:20:06;;;;;;;11.35;7.15;;;0.50;94.80;;;;;;5020362;28;20395;-75
2021/03/26 05:22:58;;;;;;;9.05;7.15;;;0.70;95.60;;;;;;5062188;28;20362;-75
2021/03/26 05:25:44;;;;;;;16.33;7.83;;;1.00;95.60;;;;;;5084222;28;20043;-75
2021/03/26 05:28:25;;;;;;;16.02;8.60;;;1.20;94.80;;;;;;5082491;28;20289;-75
2021/03/26 05:31:50;;;;;;;7.28;6.22;;;1.30;94.40;;;;;;5084015;28;20397;-75
2021/03/26 05:35:02;;;;;;;7.70;5.88;;;1.30;93.60;;;;;;5049461;28;20067;-75
2021/03/26 05:37:50;;;;;;;12.13;6.60;;;1.00;92.50;;;;;;5071519;28;20036;-75
2021/03/26 05:40:47;;;;;;;9.57;7.07;;;0.80;93.30;;;;;;5020861;28;20068;-75
2021/03/26 05:43:41;;;;;;;9.68;8.15;;;0.80;95.50;;;;;;5088570;28;20052;-75
2021/03/26 05:46:54;;;;;;;11.13;6.72;;;0.80;95.30;;;;;;5067941;28;20071;-75
2021/03/26 05:50:13;;;;;;;12.63;7.03;;;1.00;94.70;;;;;;5078424;28;20047;-75
2021/03/26 05:52:40;;;;;;;8.77;6.28;;;1.30;94.50;;;;;;5067214;28;20039;-75
2021/03/26 05:55:29;;;;;;;12.85;8.63;;;1.50;94.40;;;;;;5094336;28;20036;-75
2021/03/26 05:58:19;;;;;;;11.40;6.10;;;1.70;93.40;;;;;;5082174;28;20047;-78
2021/03/26 06:01:20;;;;;;;8.52;6.60;;;1.70;92.60;;;;;;5101860;28;20530;-74
2021/03/26 06:04:24;;;;;;;7.25;5.60;;;1.70;93.00;;;;;;5116729;28;20391;-78
2021/03/26 06:07:45;;;;;;;8.93;6.53;;;1.80;93.40;;;;;;5058762;28;20040;-75
2021/03/26 06:10:57;;;;;;;12.68;7.60;;;2.10;93.20;;;;;;5062007;28;20051;-77
2021/03/26 06:14:01;;;;;;;11.43;5.97;;;2.30;92.60;;;;;;5105297;28;20036;-78
2021/03/26 06:17:06;;;;;;;9.68;6.45;;;2.50;92.20;;;;;;5107432;28;20047;-80
2021/03/26 06:20:23;;;;;;;8.45;6.03;;;2.80;92.00;;;;;;5096230;28;20484;-82
2021/03/26 06:23:32;;;;;;;11.50;6.85;;;3.20;90.70;;;;;;5112304;28;20058;-83
2021/03/26 06:26:18;;;;;;;11.45;6.97;;;3.60;90.50;;;;;;5130700;27;20482;-85
2021/03/26 06:29:12;;;;;;;10.15;7.13;;;4.20;87.90;;;;;;5081705;28;20035;-81
2021/03/26 06:32:05;;;;;;;13.18;8.80;;;4.80;85.20;;;;;;5085435;28;20048;-84
2021/03/26 06:35:10;;;;;;;9.43;7.13;;;5.80;81.00;;;;;;5065201;28;20048;-84
2021/03/26 06:38:13;;;;;;;11.52;7.57;;;6.70;77.30;;;;;;5098061;28;20031;-83
2021/03/26 06:40:56;;;;;;;10.95;9.18;;;7.50;71.40;;;;;;5108419;27;20040;-83
2021/03/26 06:43:33;;;;;;;10.68;6.88;;;7.90;68.30;;;;;;5109562;27;20058;-83
2021/03/26 06:46:27;;;;;;;13.57;8.98;;;8.20;66.60;;;;;;5095398;28;20044;-83
2021/03/26 06:49:05;;;;;;;8.45;5.45;;;8.60;65.30;;;;;;5079801;28;20044;-83
2021/03/26 06:51:57;;;;;;;12.93;7.78;;;8.80;61.70;;;;;;5075750;28;20381;-83
2021/03/26 06:54:46;;;;;;;8.10;6.05;;;9.30;61.50;;;;;;5064552;28;20396;-85
2021/03/26 06:57:19;;;;;;;10.90;6.72;;;9.80;59.30;;;;;;5101696;28;20807;-85
2021/03/26 06:59:53;;;;;;;12.82;7.40;;;10.10;57.60;;;;;;5060404;28;20724;-85
2021/03/26 07:02:57;;;;;;;11.77;7.20;;;10.30;59.00;;;;;;5075889;28;20052;-85
2021/03/26 07:06:02;;;;;;;10.23;6.85;;;10.60;59.40;;;;;;5093985;28;20043;-86
2021/03/26 07:08:59;;;;;;;5.30;4.68;;;10.80;57.30;;;;;;5108154;28;20055;-78
2021/03/26 07:11:56;;;;;;;6.85;4.95;;;11.50;53.10;;;;;;5112744;28;20408;-87
2021/03/26 07:14:31;;;;;;;8.05;4.93;;;12.20;49.50;;;;;;5095806;28;20048;-84
2021/03/26 07:17:24;;;;;;;7.28;5.53;;;12.50;49.60;;;;;;5114523;28;20036;-87
2021/03/26 07:20:44;;;;;;;6.80;5.15;;;12.70;49.60;;;;;;5096332;28;20052;-86
2021/03/26 07:23:33;;;;;;;6.13;4.65;;;12.90;47.60;;;;;;5089123;28;20051;-86
2021/03/26 07:26:35;;;;;;;7.43;6.65;;;13.50;46.60;;;;;;5095567;28;20044;-88
2021/03/26 07:29:29;;;;;;;6.78;4.63;;;13.70;47.10;;;;;;5106448;28;20044;-86
2021/03/26 07:32:24;;;;;;;7.53;4.32;;;13.50;47.40;;;;;;5092128;28;20388;-85
2021/03/26 07:35:22;;;;;;;6.90;5.13;;;13.10;48.50;;;;;;5112701;28;20048;-87
2021/03/26 07:38:18;;;;;;;11.20;4.88;;;12.90;50.00;;;;;;5075586;28;20506;-83
2021/03/26 07:41:22;;;;;;;5.75;4.10;;;11.70;52.40;;;;;;5078092;28;20036;-81
2021/03/26 07:44:17;;;;;;;8.63;5.65;;;12.50;50.00;;;;;;5111882;28;20060;-81
2021/03/26 07:47:13;;;;;;;4.63;3.92;;;14.30;47.50;;;;;;5109149;28;20059;-83
2021/03/26 07:50:23;;;;;;;6.03;5.18;;;14.90;43.20;;;;;;5093331;28;20040;-83
2021/03/26 07:53:26;;;;;;;8.65;6.30;;;15.40;41.70;;;;;;5094517;28;20048;-83
2021/03/26 07:56:21;;;;;;;6.32;4.45;;;16.40;42.50;;;;;;5092870;28;20060;-83
2021/03/26 07:59:06;;;;;;;6.95;5.32;;;16.90;39.60;;;;;;5109949;28;20051;-83
2021/03/26 08:02:00;;;;;;;10.55;5.35;;;16.10;39.70;;;;;;5113003;28;20389;-83
2021/03/26 08:05:07;;;;;;;10.27;4.47;;;16.40;41.20;;;;;;5102991;28;20048;-84
2021/03/26 08:08:21;;;;;;;5.93;5.35;;;16.60;41.90;;;;;;5101928;28;20480;-84
2021/03/26 08:11:04;;;;;;;9.05;6.53;;;16.10;44.80;;;;;;5097505;28;20039;-84
2021/03/26 08:13:41;;;;;;;8.60;4.95;;;16.60;40.20;;;;;;5095109;28;20043;-84
2021/03/26 08:16:28;;;;;;;8.75;7.25;;;16.10;43.50;;;;;;5092791;28;20036;-84
2021/03/26 08:19:31;;;;;;;13.93;5.90;;;16.00;43.80;;;;;;5110090;28;20048;-83
2021/03/26 08:22:24;;;;;;;9.02;5.55;;;15.20;48.20;;;;;;5094337;28;20043;-84
2021/03/26 08:25:18;;;;;;;6.82;4.95;;;15.60;44.70;;;;;;5100233;28;20058;-83
2021/03/26 08:28:15;;;;;;;9.10;6.15;;;15.80;45.00;;;;;;5078928;28;20704;-85
2021/03/26 08:31:03;;;;;;;6.60;4.53;;;17.00;42.80;;;;;;5061145;28;20044;-85
2021/03/26 08:34:09;;;;;;;8.07;5.45;;;17.90;40.50;;;;;;5111222;28;20048;-83
2021/03/26 08:36:57;;;;;;;15.02;8.90;;;19.20;36.80;;;;;;5078086;28;20039;-85
2021/03/26 08:39:44;;;;;;;11.38;5.30;;;18.30;38.60;;;;;;5120149;28;20047;-85
2021/03/26 08:42:26;;;;;;;8.38;5.90;;;18.40;39.60;;;;;;5096466;27;20051;-85
2021/03/26 08:44:58;;;;;;;8.02;5.00;;;18.60;40.20;;;;;;5103237;27;20047;-85
2021/03/26 08:47:52;;;;;;;9.30;6.05;;;18.30;39.20;;;;;;5092792;28;20048;-85
2021/03/26 08:51:08;;;;;;;8.68;5.40;;;18.50;38.90;;;;;;5091536;28;20510;-85
2021/03/26 08:53:44;;;;;;;9.80;6.47;;;20.20;36.00;;;;;;5092076;28;20044;-85
2021/03/26 08:56:42;;;;;;;9.90;6.25;;;20.30;34.60;;;;;;5094339;28;20043;-84
2021/03/26 08:59:25;;;;;;;10.70;6.70;;;20.00;35.90;;;;;;5112999;28;20055;-84
2021/03/26 09:02:06;;;;;;;17.48;8.57;;;18.30;39.20;;;;;;5110076;28;20043;-84
2021/03/26 09:04:51;;;;;;;11.43;8.95;;;18.00;37.70;;;;;;5112538;28;20043;-84
2021/03/26 09:07:37;;;;;;;8.48;7.25;;;19.50;34.90;;;;;;5104287;28;20058;-85
2021/03/26 09:10:39;;;;;;;9.05;6.43;;;19.70;34.30;;;;;;5109010;28;20040;-84
2021/03/26 09:13:46;;;;;;;14.25;7.90;;;19.60;36.00;;;;;;5107195;28;20480;-84
2021/03/26 09:16:28;;;;;;;13.90;8.23;;;18.10;39.40;;;;;;5078651;28;20036;-84
2021/03/26 09:19:08;;;;;;;18.27;10.85;;;16.20;45.50;;;;;;5107697;28;20512;-84
2021/03/26 09:21:53;;;;;;;;;;;14.90;46.60;;;;;;5104773;28;20059;-84
2021/03/26 09:24:52;;;;;;;11.13;8.38;;;14.10;54.60;;;;;;5091731;28;19923;-85
2021/03/26 09:27:32;;;;;;;15.40;8.70;;;13.90;51.30;;;;;;5092283;28;20048;-85
2021/03/26 09:30:17;;;;;;;13.50;8.07;;;14.00;51.60;;;;;;5109126;28;20047;-85
2021/03/26 09:32:56;;;;;;;16.15;8.65;;;14.00;54.50;;;;;;5111931;28;20051;-85
2021/03/26 09:35:36;;;;;;;15.40;9.02;;;14.10;50.00;;;;;;5105623;28;20060;-84
2021/03/26 09:38:20;;;;;;;11.80;8.85;;;14.30;51.10;;;;;;5112567;28;20047;-84
2021/03/26 09:41:06;;;;;;;13.05;8.10;;;14.20;48.90;;;;;;5100155;28;20059;-84
2021/03/26 09:43:47;;;;;;;13.25;9.95;;;13.50;51.30;;;;;;5106079;28;20060;-85
2021/03/26 09:46:27;;;;;;;10.50;7.40;;;13.50;50.80;;;;;;5104933;28;20058;-84
2021/03/26 09:49:18;;;;;;;12.75;7.32;;;13.50;50.50;;;;;;5111768;28;20066;-84
2021/03/26 09:52:08;;;;;;;13.38;7.50;;;13.40;55.30;;;;;;5073871;28;20052;-86
2021/03/26 09:54:40;;;;;;;11.30;7.47;;;13.30;54.10;;;;;;5071681;28;20052;-85
2021/03/26 09:57:33;;;;;;;14.65;8.60;;;13.30;51.80;;;;;;5088888;28;20055;-79
2021/03/26 10:00:10;;;;;;;12.95;7.53;;;13.70;50.80;;;;;;5085664;28;20055;-79
2021/03/26 10:03:13;;;;;;;10.75;7.10;;;13.50;55.00;;;;;;5107171;28;20048;-79
2021/03/26 10:05:49;;;;;;;9.40;5.70;;;13.50;50.10;;;;;;5113696;27;20055;-80
2021/03/26 10:11:24;;;;;;;13.13;6.55;;;13.50;50.40;;;;;;5098005;27;20054;-82
2021/03/26 10:14:22;;;;;;;7.70;4.63;;;13.70;52.50;;;;;;5112029;27;20040;-76
2021/03/26 10:17:11;;;;;;;14.02;5.72;;;13.80;52.90;;;;;;5104117;28;20067;-77
2021/03/26 10:19:52;;;;;;;10.05;6.93;;;13.90;48.60;;;;;;5097651;28;20047;-77
2021/03/26 10:22:27;;;;;;;8.77;5.93;;;13.90;50.80;;;;;;5101073;28;20056;-77
2021/03/26 10:25:25;;;;;;;9.52;5.53;;;14.00;55.40;;;;;;5101464;28;20059;-76
2021/03/26 10:28:31;;;;;;;9.70;6.28;;;14.00;49.30;;;;;;5105363;28;20044;-77
2021/03/26 10:31:06;;;;;;;11.07;6.85;;;14.00;54.20;;;;;;5038863;28;20501;-75
2021/03/26 10:33:56;;;;;;;9.82;5.50;;;14.20;52.70;;;;;;5095371;28;20039;-75
2021/03/26 10:36:41;;;;;;;11.65;5.70;;;14.40;50.20;;;;;;5111659;27;20452;-75
2021/03/26 10:39:37;;;;;;;13.27;7.63;;;14.10;51.70;;;;;;5102822;28;20047;-75
2021/03/26 10:42:26;;;;;;;13.85;5.80;;;14.20;51.10;;;;;;5092506;28;20051;-75
2021/03/26 10:45:14;;;;;;;11.35;6.53;;;14.30;49.50;;;;;;5092354;28;20502;-75
2021/03/26 10:48:24;;;;;;;8.48;6.47;;;14.40;51.20;;;;;;5107046;27;20056;-76
2021/03/26 10:51:16;;;;;;;11.10;6.38;;;14.30;50.80;;;;;;5082802;28;20062;-76
2021/03/26 10:54:04;;;;;;;9.30;7.57;;;14.20;51.60;;;;;;5086539;28;20802;-75
2021/03/26 10:56:31;;;;;;;12.75;5.45;;;14.50;54.00;;;;;;5106141;27;20054;-75
2021/03/26 10:59:07;;;;;;;12.95;7.25;;;14.60;47.40;;;;;;5111409;27;20059;-76
2021/03/26 11:01:40;;;;;;;11.68;7.00;;;14.20;51.20;;;;;;5109288;27;20058;-76
2021/03/26 11:04:16;;;;;;;12.93;6.60;;;14.20;53.60;;;;;;5109150;27;20823;-76
2021/03/26 11:06:59;;;;;;;12.13;6.70;;;14.50;48.20;;;;;;5109581;27;20056;-75
2021/03/26 11:09:46;;;;;;;16.13;7.93;;;14.40;49.60;;;;;;5110543;27;20047;-75
2021/03/26 11:12:18;;;;;;;11.38;5.90;;;14.60;49.60;;;;;;5106150;28;20585;-75
2021/03/26 11:15:08;;;;;;;10.52;6.50;;;14.70;49.50;;;;;;5107496;27;20079;-77
2021/03/26 11:18:17;;;;;;;12.15;6.88;;;15.00;50.90;;;;;;5111308;27;20047;-78
2021/03/26 11:21:13;;;;;;;15.05;7.82;;;15.00;46.80;;;;;;5112381;27;20044;-77
2021/03/26 11:23:55;;;;;;;15.55;7.70;;;15.10;45.20;;;;;;5102755;28;20444;-76
2021/03/26 11:26:28;;;;;;;9.13;6.90;;;14.90;49.40;;;;;;5067546;27;20043;-77
2021/03/26 11:29:03;;;;;;;7.15;6.25;;;15.10;50.00;;;;;;5108684;27;20396;-77
2021/03/26 11:31:37;;;;;;;13.50;6.80;;;15.20;47.60;;;;;;5111545;27;20062;-77
2021/03/26 11:34:23;;;;;;;13.95;7.05;;;15.50;50.90;;;;;;5107720;27;20392;-77
2021/03/26 11:36:53;;;;;;;8.13;5.93;;;15.40;45.90;;;;;;5116827;27;20046;-81
2021/03/26 11:39:35;;;;;;;13.82;6.70;;;15.40;44.00;;;;;;5113414;27;20065;-79
2021/03/26 11:42:08;;;;;;;10.80;5.35;;;15.40;47.50;;;;;;5109085;27;20039;-81
2021/03/26 11:45:02;;;;;;;9.95;6.07;;;15.30;50.70;;;;;;5102492;27;20039;-75
2021/03/26 11:47:39;;;;;;;12.60;6.60;;;15.30;48.90;;;;;;5110670;27;20483;-74
2021/03/26 11:50:20;;;;;;;12.48;8.48;;;15.50;45.80;;;;;;5109337;27;20047;-76
2021/03/26 11:53:23;;;;;;;11.13;8.35;;;15.50;46.60;;;;;;5100446;28;20032;-75
2021/03/26 11:56:02;;;;;;;15.77;7.97;;;15.60;43.60;;;;;;5100932;27;20530;-75
2021/03/26 11:58:52;;;;;;;13.15;8.15;;;15.50;48.30;;;;;;5107406;27;20055;-79
2021/03/26 12:01:25;;;;;;;13.27;8.18;;;15.70;45.80;;;;;;5115423;27;20043;-79
2021/03/26 12:04:00;;;;;;;12.07;7.35;;;15.90;45.30;;;;;;5110075;28;20444;-80
2021/03/26 12:06:53;;;;;;;10.38;7.50;;;15.70;45.80;;;;;;5103832;27;20063;-79
2021/03/26 12:09:21;;;;;;;10.55;6.50;;;15.60;47.50;;;;;;5130085;27;20044;-86
2021/03/26 12:12:07;;;;;;;12.90;9.55;;;15.80;46.00;;;;;;5117565;27;20044;-81
2021/03/26 12:14:51;;;;;;;16.85;8.32;;;16.00;42.70;;;;;;5095725;28;20499;-79
2021/03/26 12:17:21;;;;;;;10.35;7.00;;;15.70;41.90;;;;;;5101360;28;20044;-80
2021/03/26 12:20:21;;;;;;;13.68;6.68;;;15.60;46.10;;;;;;5102645;28;20043;-80
2021/03/26 12:23:02;;;;;;;9.77;6.50;;;15.90;45.70;;;;;;5111218;28;20059;-80
2021/03/26 12:26:07;;;;;;;10.30;7.82;;;16.00;47.00;;;;;;5095900;28;20047;-81
2021/03/26 12:28:54;;;;;;;11.35;7.43;;;15.90;45.10;;;;;;5108405;28;20399;-83
2021/03/26 12:31:35;;;;;;;10.57;7.13;;;16.00;44.20;;;;;;5092772;28;20060;-83
2021/03/26 12:34:07;;;;;;;12.68;7.90;;;15.90;45.90;;;;;;5094573;28;20051;-73
2021/03/26 12:37:06;;;;;;;13.27;7.20;;;16.00;45.80;;;;;;5109114;27;20054;-76
2021/03/26 12:39:40;;;;;;;12.02;8.98;;;16.10;43.10;;;;;;5091978;28;20051;-83
2021/03/26 12:42:11;;;;;;;11.90;6.78;;;16.00;46.50;;;;;;5083883;28;20051;-85
2021/03/26 12:44:41;;;;;;;13.63;8.15;;;16.40;49.20;;;;;;5076019;28;20411;-85
2021/03/26 12:47:24;;;;;;;15.23;8.32;;;16.70;45.20;;;;;;5104244;27;20490;-83
2021/03/26 12:50:32;;;;;;;10.43;6.93;;;16.60;42.30;;;;;;5121659;27;20039;-83
2021/03/26 12:53:15;;;;;;;11.45;6.75;;;16.60;42.10;;;;;;5107190;27;20039;-82
2021/03/26 12:56:10;;;;;;;8.57;5.97;;;16.70;42.50;;;;;;5083757;28;20400;-83
2021/03/26 12:59:01;;;;;;;8.13;5.32;;;16.90;44.30;;;;;;5044543;28;20339;-83
2021/03/26 13:01:39;;;;;;;8.10;5.57;;;16.90;38.20;;;;;;5045032;28;20056;-83
2021/03/26 13:04:51;;;;;;;8.07;4.88;;;16.80;39.50;;;;;;5045703;28;20048;-83
2021/03/26 13:07:22;;;;;;;8.40;5.73;;;16.90;39.00;;;;;;5048474;28;20512;-83
2021/03/26 13:10:31;;;;;;;11.23;6.65;;;16.50;44.10;;;;;;5029199;28;20648;-84
2021/03/26 13:13:16;;;;;;;10.65;6.00;;;16.90;44.10;;;;;;5031254;28;20481;-84
2021/03/26 13:16:22;;;;;;;10.60;6.38;;;16.90;38.90;;;;;;5045767;28;20052;-84
2021/03/26 13:18:57;;;;;;;10.15;5.25;;;16.90;38.90;;;;;;5049381;28;20044;-86
2021/03/26 13:21:44;;;;;;;12.70;5.50;;;17.00;38.00;;;;;;5064149;28;20048;-84
2021/03/26 13:24:54;;;;;;;11.25;5.65;;;16.90;37.90;;;;;;5062051;28;20052;-84
2021/03/26 13:27:39;;;;;;;9.85;5.85;;;17.00;38.50;;;;;;5013643;28;20048;-88
2021/03/26 13:30:17;;;;;;;8.85;5.10;;;17.20;38.90;;;;;;5042453;28;20041;-85
2021/03/26 13:32:56;;;;;;;10.05;6.25;;;17.20;38.30;;;;;;5065452;28;20048;-86
2021/03/26 13:35:47;;;;;;;6.43;3.35;;;17.40;40.60;;;;;;5056365;28;20053;-86
2021/03/26 13:38:43;;;;;;;9.15;4.10;;;17.30;38.10;;;;;;5066632;28;20041;-86
2021/03/26 13:41:24;;;;;;;4.82;3.83;;;17.30;38.00;;;;;;5067101;28;20473;-85
2021/03/26 13:44:18;;;;;;;8.25;5.15;;;17.50;33.30;;;;;;5068055;28;20469;-86
2021/03/26 13:46:50;;;;;;;5.53;3.78;;;17.50;38.60;;;;;;5070190;28;20048;-85
2021/03/26 13:49:22;;;;;;;7.55;4.30;;;17.30;33.30;;;;;;5084848;28;20041;-86
2021/03/26 13:51:52;;;;;;;10.25;6.22;;;17.10;35.00;;;;;;5068455;28;20071;-86
2021/03/26 13:54:31;;;;;;;7.53;5.07;;;17.10;36.70;;;;;;5047486;28;20056;-85
2021/03/26 13:57:06;;;;;;;5.93;4.53;;;17.00;35.50;;;;;;5054639;28;20041;-85
2021/03/26 13:59:45;;;;;;;7.78;5.05;;;17.20;34.50;;;;;;5081628;28;20060;-86
2021/03/26 14:02:37;;;;;;;10.43;4.40;;;17.40;35.30;;;;;;5053089;28;20044;-86
2021/03/26 14:05:14;;;;;;;5.55;3.70;;;17.40;34.20;;;;;;5087336;28;20487;-86
2021/03/26 14:07:54;;;;;;;6.85;4.57;;;17.10;35.20;;;;;;5078182;28;20052;-86
2021/03/26 14:10:44;;;;;;;7.45;3.58;;;17.30;38.00;;;;;;5076488;28;20047;-86
2021/03/26 14:13:20;;;;;;;7.03;4.32;;;17.30;37.70;;;;;;5069790;28;20040;-85
2021/03/26 14:16:19;;;;;;;8.80;5.82;;;17.40;37.30;;;;;;5069271;28;20048;-84
2021/03/26 14:19:12;;;;;;;7.25;3.90;;;17.60;35.10;;;;;;5050191;28;20048;-84
2021/03/26 14:21:48;;;;;;;5.50;3.05;;;17.40;36.50;;;;;;5088669;28;20075;-85